Time;durP1;ratioP1;P1;durP2;ratioP2;P2;SDS_P1;SDS_P2;PMS_P1;PMS_P2;Temp;Humidity;BMP_temperature;BMP_pressure;BME280_temperature;BME280_humidity;BME280_pressure;Samples;Min_cycle;Max_cycle;Signal;HPM_P1;HPM_P2
2023/07/20 00:00:50;;;;;;;5.57;3.40;;;13.60;99.90;;;;;;4992242;28;20616;-57
2023/07/20 00:03:19;;;;;;;4.00;3.53;;;13.70;99.90;;;;;;4991479;28;20270;-57
2023/07/20 00:05:45;;;;;;;3.40;3.00;;;13.70;99.90;;;;;;4991795;28;20777;-57
2023/07/20 00:08:11;;;;;;;3.80;3.50;;;13.70;99.90;;;;;;4991404;28;21047;-56
2023/07/20 00:10:36;;;;;;;5.10;3.67;;;13.70;99.90;;;;;;4991257;28;20426;-57
2023/07/20 00:13:02;;;;;;;3.47;3.17;;;13.70;99.90;;;;;;4991442;28;20216;-54
2023/07/20 00:15:28;;;;;;;13.70;3.47;;;13.80;99.90;;;;;;4991549;28;20543;-57
2023/07/20 00:17:53;;;;;;;3.50;2.90;;;13.80;99.90;;;;;;4991644;28;20178;-55
2023/07/20 00:20:19;;;;;;;4.60;3.33;;;13.80;99.90;;;;;;4991673;28;20190;-58
2023/07/20 00:22:45;;;;;;;4.40;3.30;;;13.80;99.90;;;;;;4991549;28;20194;-56
2023/07/20 00:25:13;;;;;;;3.37;3.00;;;13.90;99.90;;;;;;4991356;28;20231;-56
2023/07/20 00:27:39;;;;;;;3.70;3.13;;;13.90;99.90;;;;;;4991162;28;20191;-57
2023/07/20 00:30:05;;;;;;;4.80;3.10;;;14.00;99.90;;;;;;4991194;28;20415;-58
2023/07/20 00:32:31;;;;;;;3.03;2.83;;;14.00;99.90;;;;;;4991302;28;20223;-56
2023/07/20 00:34:56;;;;;;;6.23;2.80;;;14.10;99.90;;;;;;4991004;28;20929;-56
2023/07/20 00:37:22;;;;;;;3.60;2.90;;;14.20;99.90;;;;;;4991524;28;20222;-57
2023/07/20 00:39:47;;;;;;;8.80;3.10;;;14.20;99.90;;;;;;4991115;28;20240;-58
2023/07/20 00:42:13;;;;;;;3.57;3.27;;;14.20;99.90;;;;;;4991168;28;20188;-56
2023/07/20 00:44:39;;;;;;;4.87;3.30;;;14.20;99.90;;;;;;4991025;28;20183;-57
2023/07/20 00:47:05;;;;;;;4.20;3.20;;;14.20;99.90;;;;;;4991262;28;20256;-56
2023/07/20 00:49:31;;;;;;;6.23;3.60;;;14.20;99.90;;;;;;4990946;28;20223;-57
2023/07/20 00:51:59;;;;;;;6.70;4.30;;;14.20;99.90;;;;;;4990875;28;20472;-57
2023/07/20 00:54:25;;;;;;;5.80;3.97;;;14.20;99.90;;;;;;4990533;28;20473;-56
2023/07/20 00:56:53;;;;;;;4.83;4.27;;;14.10;99.90;;;;;;4991171;28;20909;-57
2023/07/20 00:59:18;;;;;;;8.73;4.40;;;14.10;99.90;;;;;;4991233;28;20842;-56
2023/07/20 01:01:44;;;;;;;6.30;4.20;;;14.00;99.90;;;;;;4990607;28;20488;-56
2023/07/20 01:04:10;;;;;;;9.53;3.87;;;14.00;99.90;;;;;;4991297;28;20198;-56
2023/07/20 01:06:38;;;;;;;10.97;4.40;;;14.10;99.90;;;;;;4990659;28;20183;-56
2023/07/20 01:09:31;;;;;;;5.00;4.50;;;14.00;99.90;;;;;;4990785;28;20195;-56
2023/07/20 01:12:18;;;;;;;5.60;4.70;;;14.00;99.90;;;;;;4990367;28;20973;-56
2023/07/20 01:14:45;;;;;;;6.83;4.97;;;13.90;99.90;;;;;;4990736;28;21091;-56
2023/07/20 01:17:10;;;;;;;5.37;4.30;;;13.90;99.90;;;;;;4990384;28;20428;-57
2023/07/20 01:19:36;;;;;;;8.20;5.10;;;13.90;99.90;;;;;;4990785;28;20421;-57
2023/07/20 01:22:23;;;;;;;5.23;4.70;;;13.90;99.90;;;;;;4990817;28;20558;-56
2023/07/20 01:24:58;;;;;;;9.00;5.23;;;13.90;99.90;;;;;;4990347;28;20650;-56
2023/07/20 01:27:54;;;;;;;9.10;5.57;;;13.90;99.90;;;;;;4990605;28;20418;-57
2023/07/20 01:30:52;;;;;;;9.23;5.67;;;13.80;99.90;;;;;;4990499;28;20804;-56
2023/07/20 01:33:19;;;;;;;7.63;5.13;;;13.80;99.90;;;;;;5001879;28;20445;-56
2023/07/20 01:35:48;;;;;;;7.27;5.50;;;13.80;99.90;;;;;;4990505;28;20521;-56
2023/07/20 01:38:14;;;;;;;8.53;5.50;;;13.80;99.90;;;;;;4990346;28;20499;-57
2023/07/20 01:40:40;;;;;;;5.40;4.90;;;13.80;99.90;;;;;;4990133;28;20501;-56
2023/07/20 01:43:05;;;;;;;7.77;4.67;;;13.80;99.90;;;;;;4989868;28;21004;-55
2023/07/20 01:45:31;;;;;;;7.53;4.80;;;13.80;99.90;;;;;;4989994;28;20502;-55
2023/07/20 01:47:57;;;;;;;8.03;5.40;;;13.80;99.90;;;;;;4990410;28;20548;-56
2023/07/20 01:50:22;;;;;;;6.63;5.60;;;13.80;99.90;;;;;;4990423;28;20715;-56
2023/07/20 01:52:48;;;;;;;9.20;6.23;;;13.80;99.90;;;;;;4990078;28;20213;-56
2023/07/20 01:55:14;;;;;;;6.17;5.53;;;13.90;99.90;;;;;;4989780;28;20239;-56
2023/07/20 01:57:39;;;;;;;6.37;5.20;;;13.90;99.90;;;;;;4989753;28;20187;-57
2023/07/20 02:00:08;;;;;;;6.53;5.60;;;13.90;99.90;;;;;;4990086;28;20191;-56
2023/07/20 02:02:34;;;;;;;8.10;5.50;;;13.90;99.90;;;;;;4989809;28;20186;-55
2023/07/20 02:04:59;;;;;;;7.47;5.70;;;14.00;99.90;;;;;;4990108;28;20911;-55
2023/07/20 02:07:25;;;;;;;6.97;5.73;;;14.00;99.90;;;;;;4990176;28;20186;-55
2023/07/20 02:09:51;;;;;;;8.43;6.07;;;13.90;99.90;;;;;;4990088;28;20647;-55
2023/07/20 02:12:17;;;;;;;8.00;6.80;;;13.90;99.90;;;;;;4990156;28;20239;-55
2023/07/20 02:14:42;;;;;;;6.13;5.00;;;13.90;99.90;;;;;;4989860;28;20533;-55
2023/07/20 02:17:10;;;;;;;5.67;4.90;;;13.90;99.90;;;;;;4989787;28;20201;-55
2023/07/20 02:19:37;;;;;;;5.20;4.80;;;14.00;99.90;;;;;;4989597;28;20188;-55
2023/07/20 02:22:02;;;;;;;4.23;3.83;;;14.00;99.90;;;;;;4989786;28;20418;-55
2023/07/20 02:24:28;;;;;;;5.97;4.63;;;14.00;99.90;;;;;;4989613;28;20945;-57
2023/07/20 02:26:53;;;;;;;4.40;4.00;;;14.00;99.90;;;;;;4989803;28;20186;-56
2023/07/20 02:29:19;;;;;;;4.80;4.30;;;13.90;99.90;;;;;;4989829;28;20178;-56
2023/07/20 02:31:44;;;;;;;4.90;4.50;;;13.90;99.90;;;;;;4989468;28;20673;-55
2023/07/20 02:34:10;;;;;;;4.50;4.10;;;13.90;99.90;;;;;;4989962;28;20181;-55
2023/07/20 02:36:36;;;;;;;6.63;4.57;;;14.00;99.90;;;;;;4989348;28;20256;-56
2023/07/20 02:39:03;;;;;;;4.23;3.83;;;13.90;99.90;;;;;;4989409;28;20182;-55
2023/07/20 02:41:33;;;;;;;4.73;4.33;;;13.90;99.90;;;;;;4989509;28;20225;-54
2023/07/20 02:43:58;;;;;;;4.73;4.00;;;13.90;99.90;;;;;;4989004;28;20795;-55
2023/07/20 02:46:24;;;;;;;6.87;5.13;;;13.90;99.90;;;;;;4989804;28;20419;-56
2023/07/20 02:48:49;;;;;;;5.80;4.87;;;13.90;99.90;;;;;;4989392;28;20194;-55
2023/07/20 02:51:15;;;;;;;5.70;5.00;;;13.90;99.90;;;;;;4989453;28;20211;-55
2023/07/20 02:53:41;;;;;;;5.77;5.27;;;13.90;99.90;;;;;;4989540;28;20183;-55
2023/07/20 02:56:07;;;;;;;4.77;4.37;;;13.90;99.90;;;;;;4988942;28;20245;-55
2023/07/20 02:58:36;;;;;;;5.23;4.73;;;13.90;99.90;;;;;;4989575;28;20920;-55
2023/07/20 03:01:02;;;;;;;5.63;5.07;;;13.80;99.90;;;;;;4989412;28;20430;-56
2023/07/20 03:03:28;;;;;;;5.10;4.60;;;13.80;99.90;;;;;;4989336;28;20426;-55
2023/07/20 03:05:55;;;;;;;6.50;5.27;;;13.80;99.90;;;;;;4989519;28;20418;-56
2023/07/20 03:08:21;;;;;;;7.50;4.80;;;13.80;99.90;;;;;;4989540;28;20251;-53
2023/07/20 03:10:47;;;;;;;4.83;4.40;;;13.80;99.90;;;;;;4992625;28;20942;-55
2023/07/20 03:13:14;;;;;;;6.57;4.63;;;13.70;99.90;;;;;;4992800;28;20453;-55
2023/07/20 03:15:39;;;;;;;5.83;5.00;;;13.80;99.90;;;;;;4992748;28;20662;-55
2023/07/20 03:18:05;;;;;;;5.90;5.23;;;13.80;99.90;;;;;;4992751;28;20421;-55
2023/07/20 03:20:31;;;;;;;6.10;4.57;;;13.70;99.90;;;;;;4992412;28;20213;-56
2023/07/20 03:22:57;;;;;;;6.17;5.10;;;13.70;99.90;;;;;;4992262;28;20194;-56
2023/07/20 03:25:22;;;;;;;5.00;4.50;;;13.70;99.90;;;;;;4992551;28;20446;-55
2023/07/20 03:27:48;;;;;;;5.30;4.80;;;13.70;99.90;;;;;;4992535;28;20654;-55
2023/07/20 03:30:14;;;;;;;5.77;5.10;;;13.70;99.90;;;;;;4992108;28;20269;-55
2023/07/20 03:32:40;;;;;;;4.67;4.13;;;13.70;99.90;;;;;;4991843;28;20215;-55
2023/07/20 03:35:06;;;;;;;4.20;3.80;;;13.70;99.90;;;;;;4992421;28;20506;-56
2023/07/20 03:37:31;;;;;;;5.93;3.93;;;13.70;99.90;;;;;;4992221;28;20703;-55
2023/07/20 03:39:57;;;;;;;5.23;4.60;;;13.70;99.90;;;;;;4992260;28;20418;-55
2023/07/20 03:42:23;;;;;;;4.67;4.17;;;13.70;99.90;;;;;;4992136;28;20191;-55
2023/07/20 03:44:48;;;;;;;5.00;4.50;;;13.70;99.90;;;;;;4991788;28;20610;-55
2023/07/20 03:47:14;;;;;;;8.17;5.67;;;13.70;99.90;;;;;;4991670;28;20270;-54
2023/07/20 03:49:40;;;;;;;7.37;5.20;;;13.70;99.90;;;;;;4992223;28;20653;-56
2023/07/20 03:52:05;;;;;;;5.67;5.17;;;13.80;99.90;;;;;;4992024;28;20293;-54
2023/07/20 03:54:31;;;;;;;6.37;5.77;;;13.70;99.90;;;;;;4991493;28;20617;-54
2023/07/20 03:56:57;;;;;;;5.90;5.30;;;13.80;99.90;;;;;;4991946;28;20232;-55
2023/07/20 03:59:22;;;;;;;8.33;5.73;;;13.80;99.90;;;;;;4992504;28;20187;-54
2023/07/20 04:01:48;;;;;;;10.13;6.27;;;13.90;99.90;;;;;;4991551;28;20195;-55
2023/07/20 04:04:16;;;;;;;7.70;5.70;;;13.90;99.90;;;;;;4991715;28;20183;-55
2023/07/20 04:06:44;;;;;;;5.93;5.33;;;13.90;99.90;;;;;;4991759;28;20184;-55
2023/07/20 04:09:11;;;;;;;10.00;6.17;;;13.90;99.90;;;;;;4991769;28;20417;-55
2023/07/20 04:11:36;;;;;;;8.80;6.20;;;13.90;99.90;;;;;;4991841;28;20504;-53
2023/07/20 04:14:02;;;;;;;6.53;5.60;;;14.00;99.90;;;;;;4991514;28;20458;-54
2023/07/20 04:16:28;;;;;;;7.57;5.90;;;14.00;99.90;;;;;;4991773;28;20198;-54
2023/07/20 04:18:56;;;;;;;6.30;5.67;;;14.00;99.90;;;;;;4991826;28;20182;-56
2023/07/20 04:21:22;;;;;;;5.57;5.07;;;14.00;99.90;;;;;;4991073;28;20193;-55
2023/07/20 04:23:47;;;;;;;7.63;5.43;;;14.00;99.90;;;;;;4991578;28;20517;-54
2023/07/20 04:26:14;;;;;;;6.43;5.33;;;14.10;99.90;;;;;;4991435;28;20197;-54
2023/07/20 04:28:42;;;;;;;5.87;5.37;;;14.10;99.90;;;;;;4991676;28;20176;-55
2023/07/20 04:31:15;;;;;;;8.67;4.90;;;14.10;99.90;;;;;;4991437;28;20469;-55
2023/07/20 04:33:41;;;;;;;7.30;4.80;;;14.10;99.90;;;;;;4991424;28;20465;-54
2023/07/20 04:36:07;;;;;;;4.93;4.53;;;14.20;99.90;;;;;;4991115;28;20419;-53
2023/07/20 04:38:33;;;;;;;4.93;4.53;;;14.40;99.90;;;;;;4991212;28;20431;-55
2023/07/20 04:40:59;;;;;;;4.50;3.73;;;14.50;99.90;;;;;;4991503;28;20471;-56
2023/07/20 04:43:25;;;;;;;4.10;3.60;;;14.50;99.90;;;;;;4991509;28;20443;-54
2023/07/20 04:45:51;;;;;;;4.33;3.77;;;14.60;99.90;;;;;;4991282;28;20535;-55
2023/07/20 04:48:17;;;;;;;5.27;3.67;;;14.70;99.90;;;;;;4990957;28;20419;-56
2023/07/20 04:50:45;;;;;;;3.60;3.30;;;14.80;99.90;;;;;;4990987;28;20224;-55
2023/07/20 04:53:11;;;;;;;4.47;3.50;;;14.70;99.90;;;;;;4991305;28;20443;-55
2023/07/20 04:55:38;;;;;;;4.37;3.63;;;14.70;99.90;;;;;;4990903;28;20886;-55
2023/07/20 04:58:05;;;;;;;5.47;3.43;;;14.70;99.90;;;;;;4991032;28;20422;-55
2023/07/20 05:00:32;;;;;;;4.80;3.57;;;14.70;99.90;;;;;;4990851;28;20415;-54
2023/07/20 05:02:57;;;;;;;7.53;3.70;;;14.80;99.90;;;;;;4991087;28;20483;-55
2023/07/20 05:05:23;;;;;;;4.70;4.30;;;14.90;99.90;;;;;;4990838;28;20423;-57
2023/07/20 05:07:49;;;;;;;9.67;3.80;;;15.00;99.90;;;;;;4990742;28;20183;-56
2023/07/20 05:10:14;;;;;;;4.17;3.77;;;15.20;99.90;;;;;;4990964;28;20189;-56
2023/07/20 05:12:40;;;;;;;4.70;4.17;;;15.20;99.90;;;;;;4990888;28;20210;-55
2023/07/20 05:15:06;;;;;;;5.63;4.10;;;15.40;99.90;;;;;;4990741;28;20276;-55
2023/07/20 05:17:31;;;;;;;4.93;4.50;;;15.50;99.90;;;;;;4990733;28;20179;-55
2023/07/20 05:19:57;;;;;;;4.10;3.80;;;15.70;99.90;;;;;;4990740;28;20421;-55
2023/07/20 05:22:24;;;;;;;4.50;4.10;;;15.70;99.90;;;;;;4990669;28;20188;-54
2023/07/20 05:24:50;;;;;;;5.33;4.80;;;15.80;99.90;;;;;;4990687;28;20267;-56
2023/07/20 05:27:15;;;;;;;5.77;4.43;;;15.80;99.90;;;;;;4990285;28;20502;-56
2023/07/20 05:29:47;;;;;;;7.93;4.33;;;15.90;99.90;;;;;;4990484;28;20191;-56
2023/07/20 05:32:13;;;;;;;6.97;5.00;;;15.90;99.90;;;;;;4989691;28;20552;-56
2023/07/20 05:34:39;;;;;;;7.20;5.00;;;16.10;99.90;;;;;;4990191;28;20514;-56
2023/07/20 05:37:05;;;;;;;5.60;4.13;;;16.10;43.30;;;;;;4990355;28;20467;-55
2023/07/20 05:39:32;;;;;;;4.43;4.10;;;16.20;14.40;;;;;;4990419;28;20466;-55
2023/07/20 05:41:58;;;;;;;4.50;3.60;;;16.30;1.00;;;;;;4990705;28;20448;-57
2023/07/20 05:44:24;;;;;;;4.70;3.87;;;16.50;1.00;;;;;;4990298;28;20911;-56
2023/07/20 05:46:49;;;;;;;4.03;3.63;;;16.60;1.00;;;;;;4990230;28;20190;-57
2023/07/20 05:49:15;;;;;;;8.70;4.23;;;16.70;1.00;;;;;;4990108;28;20187;-58
2023/07/20 05:51:40;;;;;;;5.10;4.60;;;16.80;1.00;;;;;;4989798;28;20211;-55
2023/07/20 05:54:06;;;;;;;5.40;4.47;;;16.90;1.00;;;;;;4988631;28;20232;-58
2023/07/20 05:56:32;;;;;;;6.20;4.27;;;17.00;99.90;;;;;;4988861;28;20266;-56
2023/07/20 05:58:57;;;;;;;5.87;4.70;;;17.10;99.90;;;;;;4988843;28;20639;-56
2023/07/20 06:01:23;;;;;;;5.40;4.60;;;17.10;99.90;;;;;;4988990;28;20191;-55
2023/07/20 06:03:48;;;;;;;5.50;4.30;;;17.30;99.90;;;;;;4988620;28;20670;-58
2023/07/20 06:06:14;;;;;;;5.60;4.20;;;17.40;76.40;;;;;;4988715;28;20511;-55
2023/07/20 06:08:40;;;;;;;2.90;2.40;;;17.40;1.00;;;;;;4989935;28;20630;-58
2023/07/20 06:11:06;;;;;;;5.80;2.53;;;17.20;1.00;;;;;;4989930;28;20430;-57
2023/07/20 06:13:31;;;;;;;5.33;2.77;;;17.20;56.40;;;;;;4989910;28;20192;-58
2023/07/20 06:15:57;;;;;;;4.17;2.23;;;17.20;1.00;;;;;;4988879;28;20535;-58
2023/07/20 06:18:23;;;;;;;4.57;2.40;;;17.10;99.90;;;;;;4990041;28;20546;-57
2023/07/20 06:20:52;;;;;;;4.27;2.00;;;17.10;99.90;;;;;;4989844;28;20527;-57
2023/07/20 06:23:19;;;;;;;3.30;1.70;;;17.20;1.00;;;;;;4989586;28;20944;-57
2023/07/20 06:25:45;;;;;;;5.53;1.93;;;17.60;1.00;;;;;;4988848;28;20414;-56
2023/07/20 06:28:11;;;;;;;4.97;2.23;;;17.80;1.00;;;;;;4989627;28;20426;-57
2023/07/20 06:30:37;;;;;;;3.53;1.77;;;18.30;1.00;;;;;;4989519;28;20697;-57
2023/07/20 06:33:02;;;;;;;2.27;2.07;;;18.70;1.00;;;;;;4989855;28;20471;-56
2023/07/20 06:35:28;;;;;;;4.33;1.70;;;18.60;99.90;;;;;;4989671;28;20184;-56
2023/07/20 06:37:53;;;;;;;3.23;1.80;;;18.60;99.90;;;;;;4988844;28;20260;-57
2023/07/20 06:40:19;;;;;;;3.83;1.87;;;18.80;99.90;;;;;;4989767;28;20659;-58
2023/07/20 06:42:44;;;;;;;6.13;2.20;;;18.90;99.90;;;;;;4989970;28;20216;-55
2023/07/20 06:45:10;;;;;;;3.30;2.10;;;19.10;99.90;;;;;;4992808;28;20184;-57
2023/07/20 06:47:39;;;;;;;6.07;2.00;;;18.90;1.00;;;;;;4992761;28;20600;-58
2023/07/20 06:50:09;;;;;;;3.23;1.80;;;19.10;1.00;;;;;;4993227;28;20259;-57
2023/07/20 06:52:35;;;;;;;2.80;1.60;;;19.20;1.00;;;;;;4993392;28;20479;-57
2023/07/20 06:55:00;;;;;;;2.93;1.50;;;19.40;1.00;;;;;;4993010;28;20470;-57
2023/07/20 06:57:26;;;;;;;4.90;1.80;;;19.10;1.00;;;;;;4993284;28;20640;-57
2023/07/20 06:59:52;;;;;;;1.63;1.53;;;19.20;1.00;;;;;;4993161;28;20188;-58
2023/07/20 07:02:18;;;;;;;4.03;1.90;;;19.20;1.00;;;;;;4993158;28;20229;-57
2023/07/20 07:04:45;;;;;;;6.50;1.53;;;19.50;1.00;;;;;;4992871;28;20188;-57
2023/07/20 07:07:10;;;;;;;3.00;1.70;;;19.50;1.00;;;;;;4992953;28;20415;-56
2023/07/20 07:09:36;;;;;;;3.10;1.50;;;19.70;1.00;;;;;;4992765;28;20484;-57
2023/07/20 07:12:02;;;;;;;3.93;1.80;;;19.90;1.00;;;;;;4992453;28;20295;-55
2023/07/20 07:14:27;;;;;;;7.73;1.53;;;20.10;1.00;;;;;;4993231;28;20187;-56
2023/07/20 07:16:53;;;;;;;3.67;1.83;;;20.30;1.00;;;;;;4992877;28;20192;-57
2023/07/20 07:19:19;;;;;;;3.87;1.60;;;20.40;1.00;;;;;;4992862;28;20182;-57
2023/07/20 07:21:44;;;;;;;7.20;2.10;;;20.10;1.00;;;;;;4992799;28;20196;-58
2023/07/20 07:24:10;;;;;;;4.83;1.67;;;19.90;1.00;;;;;;4992724;28;20419;-57
2023/07/20 07:26:36;;;;;;;4.50;1.83;;;20.10;1.00;;;;;;4992536;28;20648;-57
2023/07/20 07:29:03;;;;;;;6.63;2.10;;;20.20;1.00;;;;;;4992728;28;20180;-56
2023/07/20 07:31:30;;;;;;;3.50;1.57;;;20.10;1.00;;;;;;4992910;28;20512;-57
2023/07/20 07:33:56;;;;;;;3.53;1.80;;;19.70;1.00;;;;;;4992659;28;20514;-57
2023/07/20 07:36:24;;;;;;;7.77;2.20;;;19.10;1.00;;;;;;4992597;28;20435;-58
2023/07/20 07:38:50;;;;;;;4.70;1.80;;;18.60;1.00;;;;;;4992571;28;20423;-58
2023/07/20 07:41:15;;;;;;;5.90;1.80;;;18.40;1.00;;;;;;4992658;28;20949;-58
2023/07/20 07:43:41;;;;;;;3.73;2.10;;;18.80;1.00;;;;;;4992363;28;20199;-57
2023/07/20 07:46:07;;;;;;;2.53;2.07;;;19.40;1.00;;;;;;4992504;28;20214;-58
2023/07/20 07:48:32;;;;;;;4.60;2.10;;;20.00;1.00;;;;;;4992712;28;20183;-56
2023/07/20 07:50:58;;;;;;;5.80;1.87;;;20.40;1.00;;;;;;4992553;28;20180;-58
2023/07/20 07:53:25;;;;;;;3.90;2.00;;;20.30;1.00;;;;;;4992174;28;20658;-57
2023/07/20 07:55:52;;;;;;;6.03;2.10;;;20.30;1.00;;;;;;4991630;28;20324;-58
2023/07/20 07:58:17;;;;;;;6.43;2.33;;;20.00;1.00;;;;;;4992243;28;20422;-57
2023/07/20 08:00:44;;;;;;;5.57;2.10;;;19.60;1.00;;;;;;4992163;28;20757;-57
2023/07/20 08:03:10;;;;;;;6.50;3.10;;;19.20;1.00;;;;;;4992134;28;20196;-58
2023/07/20 08:05:35;;;;;;;3.03;2.73;;;19.10;1.00;;;;;;4992368;28;20412;-59
2023/07/20 08:08:04;;;;;;;4.07;2.47;;;19.10;1.00;;;;;;4992377;28;20589;-58
2023/07/20 08:10:30;;;;;;;10.00;2.63;;;19.60;1.00;;;;;;4992299;28;20190;-58
2023/07/20 08:12:56;;;;;;;6.00;2.80;;;20.40;1.00;;;;;;4991660;28;20480;-58
2023/07/20 08:15:22;;;;;;;7.93;2.40;;;21.00;1.00;;;;;;4992035;28;20412;-57
2023/07/20 08:17:48;;;;;;;3.30;2.43;;;21.00;1.00;;;;;;4991930;28;20440;-57
2023/07/20 08:20:17;;;;;;;7.00;2.57;;;20.60;1.00;;;;;;4991768;28;20184;-57
2023/07/20 08:22:42;;;;;;;6.77;2.63;;;20.10;1.00;;;;;;4991880;28;20459;-57
2023/07/20 08:25:09;;;;;;;6.53;3.00;;;19.50;1.00;;;;;;4991751;28;20454;-57
2023/07/20 08:27:35;;;;;;;7.80;2.47;;;19.80;1.00;;;;;;4991935;28;20190;-56
2023/07/20 08:30:00;;;;;;;4.47;2.30;;;20.60;1.00;;;;;;4991797;28;20936;-57
2023/07/20 08:32:26;;;;;;;5.63;2.23;;;21.10;1.00;;;;;;4991493;28;20475;-57
2023/07/20 08:34:52;;;;;;;13.30;3.47;;;21.60;1.00;;;;;;4991733;28;20227;-57
2023/07/20 08:37:18;;;;;;;6.67;2.27;;;22.10;1.00;;;;;;4991614;28;20184;-53
2023/07/20 08:39:43;;;;;;;6.90;2.47;;;22.40;1.00;;;;;;4991635;28;20264;-54
2023/07/20 08:42:10;;;;;;;6.70;2.70;;;22.00;1.00;;;;;;4991680;28;20643;-54
2023/07/20 08:44:38;;;;;;;10.63;2.87;;;20.80;1.00;;;;;;4991677;28;20188;-54
2023/07/20 08:47:05;;;;;;;8.47;2.87;;;19.50;1.00;;;;;;4991454;28;20453;-54
2023/07/20 08:49:34;;;;;;;7.27;2.93;;;18.60;1.00;;;;;;4991091;28;20477;-55
2023/07/20 08:52:00;;;;;;;15.20;3.53;;;18.10;1.00;;;;;;4992509;28;20554;-55
2023/07/20 08:54:32;;;;;;;8.97;3.20;;;17.80;1.00;;;;;;4993141;28;20463;-55
2023/07/20 08:57:01;;;;;;;8.67;3.30;;;18.30;1.00;;;;;;4993250;28;20438;-55
2023/07/20 08:59:28;;;;;;;10.50;3.40;;;19.50;1.00;;;;;;4993140;28;20435;-54
2023/07/20 09:01:55;;;;;;;7.10;2.77;;;20.60;42.90;;;;;;4992679;28;20470;-55
2023/07/20 09:04:21;;;;;;;4.57;3.10;;;21.40;1.00;;;;;;4990727;28;20936;-54
2023/07/20 09:06:49;;;;;;;6.50;2.20;;;22.10;1.00;;;;;;4990711;28;20429;-55
2023/07/20 09:09:15;;;;;;;6.90;2.60;;;22.40;1.00;;;;;;4990970;28;20418;-53
2023/07/20 09:11:40;;;;;;;12.70;2.60;;;22.80;1.00;;;;;;4990821;28;20511;-54
2023/07/20 09:14:08;;;;;;;6.20;2.73;;;22.90;1.00;;;;;;4991124;28;20180;-54
2023/07/20 09:16:52;;;;;;;9.20;2.17;;;23.00;1.00;;;;;;4991209;28;20202;-50
2023/07/20 09:19:18;;;;;;;5.93;2.07;;;23.20;1.00;;;;;;4990888;28;20415;-53
2023/07/20 09:21:51;;;;;;;4.40;1.90;;;23.00;1.00;;;;;;4990743;28;20447;-53
2023/07/20 09:24:18;;;;;;;5.47;2.17;;;21.70;1.00;;;;;;4990697;28;20928;-53
2023/07/20 09:26:48;;;;;;;9.10;1.90;;;20.50;1.00;;;;;;4990680;28;20898;-53
2023/07/20 09:29:14;;;;;;;5.27;1.70;;;19.70;1.00;;;;;;4990620;28;20970;-54
2023/07/20 09:31:40;;;;;;;7.43;1.93;;;18.80;1.00;;;;;;4990599;28;20475;-54
2023/07/20 09:34:07;;;;;;;5.60;1.60;;;18.20;1.00;;;;;;4990678;28;21022;-53
2023/07/20 09:36:36;;;;;;;3.90;1.67;;;17.70;1.00;;;;;;4991156;28;20419;-54
2023/07/20 09:39:04;;;;;;;3.93;1.40;;;17.60;1.00;;;;;;4990765;28;20422;-54
2023/07/20 09:41:30;;;;;;;4.20;1.63;;;17.50;1.00;;;;;;4990725;28;20444;-55
2023/07/20 09:43:56;;;;;;;3.67;1.60;;;17.80;1.00;;;;;;4990400;28;20923;-55
2023/07/20 09:46:22;;;;;;;4.17;1.47;;;18.60;50.80;;;;;;4990678;28;20421;-54
2023/07/20 09:48:54;;;;;;;1.87;1.10;;;19.40;1.00;;;;;;4990660;28;20188;-53
2023/07/20 09:51:23;;;;;;;2.30;1.00;;;19.80;1.00;;;;;;4990265;28;20459;-54
2023/07/20 09:53:49;;;;;;;5.23;1.37;;;20.10;1.00;;;;;;4990341;28;20416;-54
2023/07/20 09:56:17;;;;;;;2.60;1.00;;;20.00;1.00;;;;;;4990564;28;20751;-54
2023/07/20 09:58:45;;;;;;;2.30;1.23;;;20.30;1.00;;;;;;4990636;28;20180;-54
2023/07/20 10:01:14;;;;;;;5.63;1.57;;;21.10;1.00;;;;;;4990500;28;20420;-55
2023/07/20 10:03:43;;;;;;;4.40;1.60;;;21.80;1.00;;;;;;4990386;28;20445;-54
2023/07/20 10:06:12;;;;;;;5.90;1.40;;;22.40;1.00;;;;;;4990372;28;20417;-54
2023/07/20 10:08:42;;;;;;;2.60;1.33;;;22.80;1.00;;;;;;4990048;28;20462;-52
2023/07/20 10:11:09;;;;;;;4.33;1.23;;;23.40;1.00;;;;;;4990231;28;20462;-52
2023/07/20 10:13:38;;;;;;;3.73;1.60;;;23.40;1.00;;;;;;4989938;28;20437;-52
2023/07/20 10:16:22;;;;;;;2.80;1.30;;;22.30;1.00;;;;;;4990317;28;20436;-51
2023/07/20 10:18:53;;;;;;;3.57;1.30;;;21.90;1.00;;;;;;4995019;28;20450;-54
2023/07/20 10:21:22;;;;;;;7.23;1.50;;;22.40;1.00;;;;;;4996740;28;20418;-54
2023/07/20 10:23:48;;;;;;;6.23;1.30;;;22.70;1.00;;;;;;4996619;28;20418;-54
2023/07/20 10:26:14;;;;;;;4.10;1.37;;;22.40;1.00;;;;;;4996638;28;20419;-54
2023/07/20 10:28:41;;;;;;;2.37;1.30;;;21.80;1.00;;;;;;4996801;28;20513;-54
2023/07/20 10:31:12;;;;;;;4.93;1.27;;;21.80;1.00;;;;;;4996480;28;20492;-53
2023/07/20 10:33:38;;;;;;;4.13;1.40;;;22.70;1.00;;;;;;4996589;28;20430;-54
2023/07/20 10:36:05;;;;;;;2.40;1.23;;;23.20;1.00;;;;;;4996957;28;20460;-51
2023/07/20 10:38:54;;;;;;;4.33;1.20;;;23.30;1.00;;;;;;4996572;28;20909;-54
2023/07/20 10:41:20;;;;;;;3.53;1.30;;;22.10;1.00;;;;;;4996630;28;20441;-54
2023/07/20 10:43:47;;;;;;;3.97;1.63;;;21.10;1.00;;;;;;4996282;28;20431;-53
2023/07/20 10:46:13;;;;;;;2.53;1.10;;;21.30;1.00;;;;;;4996538;28;20419;-52
2023/07/20 10:49:02;;;;;;;3.17;1.20;;;22.20;1.00;;;;;;4996161;28;20426;-54
2023/07/20 10:51:28;;;;;;;1.73;1.10;;;22.60;1.00;;;;;;4996326;28;20474;-54
2023/07/20 10:53:58;;;;;;;2.63;1.40;;;22.10;1.00;;;;;;4996240;28;20427;-54
2023/07/20 10:56:27;;;;;;;5.10;1.30;;;21.40;1.00;;;;;;4996400;28;20889;-53
2023/07/20 10:58:58;;;;;;;2.53;1.27;;;20.70;1.00;;;;;;4996057;28;20458;-53
2023/07/20 11:01:31;;;;;;;4.00;1.20;;;20.70;1.00;;;;;;4996409;28;20460;-54
2023/07/20 11:04:00;;;;;;;2.70;1.00;;;21.40;1.00;;;;;;4996046;28;20419;-54
2023/07/20 11:06:26;;;;;;;2.43;1.30;;;21.80;1.00;;;;;;4995858;28;20473;-52
2023/07/20 11:08:56;;;;;;;3.47;1.00;;;21.40;1.00;;;;;;4997538;28;20510;-54
2023/07/20 11:11:30;;;;;;;3.13;0.90;;;20.80;1.00;;;;;;4997230;28;20206;-53
2023/07/20 11:13:58;;;;;;;2.10;1.30;;;20.90;1.00;;;;;;4997153;28;20473;-51
2023/07/20 11:16:41;;;;;;;3.07;1.00;;;21.50;1.00;;;;;;4997476;28;20422;-52
2023/07/20 11:19:17;;;;;;;12.33;1.00;;;21.50;1.00;;;;;;4997414;28;20444;-52
2023/07/20 11:21:44;;;;;;;2.40;0.80;;;21.30;1.00;;;;;;4997163;28;20409;-51
2023/07/20 11:24:11;;;;;;;3.37;1.10;;;21.50;1.00;;;;;;4997302;28;20429;-53
2023/07/20 11:26:41;;;;;;;2.50;1.00;;;21.60;1.00;;;;;;4997440;28;20813;-53
2023/07/20 11:29:07;;;;;;;2.50;1.00;;;21.30;1.00;;;;;;4995371;28;20418;-52
2023/07/20 11:31:36;;;;;;;2.93;1.10;;;21.10;1.00;;;;;;4994231;28;20992;-54
2023/07/20 11:34:02;;;;;;;1.80;0.97;;;21.10;1.00;;;;;;4994312;28;20188;-54
2023/07/20 11:36:28;;;;;;;2.07;1.10;;;21.50;1.00;;;;;;4994304;28;20421;-54
2023/07/20 11:38:54;;;;;;;2.30;0.90;;;21.80;1.00;;;;;;4993679;28;20567;-53
2023/07/20 11:41:19;;;;;;;5.50;1.00;;;21.80;1.00;;;;;;4993937;28;20190;-53
2023/07/20 11:43:45;;;;;;;4.30;1.17;;;22.00;1.00;;;;;;4993707;28;20459;-54
2023/07/20 11:46:11;;;;;;;2.87;0.90;;;22.00;1.00;;;;;;4994250;28;20177;-53
2023/07/20 11:48:37;;;;;;;2.20;0.93;;;22.30;1.00;;;;;;4994280;28;20571;-53
2023/07/20 11:51:02;;;;;;;2.80;1.00;;;22.50;1.00;;;;;;4993928;28;20217;-53
2023/07/20 11:53:29;;;;;;;2.70;1.20;;;22.40;1.00;;;;;;4993493;28;20417;-52
2023/07/20 11:55:55;;;;;;;4.50;1.00;;;22.30;1.00;;;;;;4993336;28;20255;-53
2023/07/20 11:58:21;;;;;;;3.73;1.07;;;22.40;1.00;;;;;;4993614;28;20466;-53
2023/07/20 12:00:47;;;;;;;3.20;1.00;;;22.60;1.00;;;;;;4993414;28;20510;-52
2023/07/20 12:03:13;;;;;;;2.60;0.90;;;22.80;1.00;;;;;;4993421;28;20189;-52
2023/07/20 12:05:39;;;;;;;2.70;1.00;;;22.70;1.00;;;;;;4993741;28;20418;-53
2023/07/20 12:08:05;;;;;;;5.63;1.10;;;22.90;1.00;;;;;;4993504;28;20187;-52
2023/07/20 12:10:31;;;;;;;3.80;1.30;;;23.00;1.00;;;;;;4993918;28;20431;-52
2023/07/20 12:13:03;;;;;;;2.67;1.03;;;22.90;1.00;;;;;;4993616;28;20619;-51
2023/07/20 12:15:30;;;;;;;2.80;1.20;;;22.60;1.00;;;;;;4993240;28;20519;-52
2023/07/20 12:18:00;;;;;;;3.47;0.98;;;22.70;1.00;;;;;;4992587;28;20442;-54
2023/07/20 12:20:35;;;;;;;1.90;1.00;;;22.70;1.00;;;;;;4993099;28;20663;-55
2023/07/20 12:23:02;;;;;;;6.10;1.50;;;22.60;1.00;;;;;;4993265;28;20481;-54
2023/07/20 12:25:39;;;;;;;3.07;1.00;;;22.30;1.00;;;;;;4993356;28;20417;-55
2023/07/20 12:28:10;;;;;;;3.60;1.20;;;21.70;1.00;;;;;;4993464;28;20414;-54
2023/07/20 12:30:37;;;;;;;5.67;1.80;;;21.40;1.00;;;;;;4993376;28;20409;-55
2023/07/20 12:33:03;;;;;;;3.37;1.07;;;21.20;1.00;;;;;;4993145;28;20472;-55
2023/07/20 12:35:30;;;;;;;2.83;1.10;;;21.00;1.00;;;;;;4993230;28;20448;-54
2023/07/20 12:37:56;;;;;;;3.30;1.30;;;20.70;1.00;;;;;;4992812;28;20782;-54
2023/07/20 12:40:22;;;;;;;7.30;1.60;;;20.80;1.00;;;;;;4992469;28;20505;-54
2023/07/20 12:42:48;;;;;;;4.40;1.40;;;21.10;1.00;;;;;;4993074;28;20227;-55
2023/07/20 12:45:14;;;;;;;5.67;1.33;;;21.40;1.00;;;;;;4993271;28;20266;-54
2023/07/20 12:47:40;;;;;;;5.00;1.40;;;21.30;1.00;;;;;;4993105;28;20528;-54
2023/07/20 12:50:07;;;;;;;2.13;0.90;;;21.50;1.00;;;;;;4993174;28;20456;-54
2023/07/20 12:52:37;;;;;;;4.07;1.10;;;21.60;1.00;;;;;;4993227;28;20549;-54